sensor_id;sensor_type;location;lat;lon;timestamp;temperature;humidity
5200;DHT22;2619;47.868;11.892;2022-12-31T00:01:27;6.50;99.90
5200;DHT22;2619;47.868;11.892;2022-12-31T00:03:54;6.40;99.90
5200;DHT22;2619;47.868;11.892;2022-12-31T00:08:47;6.20;99.90
5200;DHT22;2619;47.868;11.892;2022-12-31T00:11:14;6.10;99.90
5200;DHT22;2619;47.868;11.892;2022-12-31T00:13:40;6.10;99.90
5200;DHT22;2619;47.868;11.892;2022-12-31T00:16:10;6.10;99.90
5200;DHT22;2619;47.868;11.892;2022-12-31T00:18:36;6.10;99.90
5200;DHT22;2619;47.868;11.892;2022-12-31T00:21:08;6.10;99.90
5200;DHT22;2619;47.868;11.892;2022-12-31T00:23:35;6.00;99.90
5200;DHT22;2619;47.868;11.892;2022-12-31T00:26:15;6.00;99.90
5200;DHT22;2619;47.868;11.892;2022-12-31T00:28:41;6.00;99.90
5200;DHT22;2619;47.868;11.892;2022-12-31T00:33:37;6.00;99.90
5200;DHT22;2619;47.868;11.892;2022-12-31T00:38:33;6.00;99.90
5200;DHT22;2619;47.868;11.892;2022-12-31T00:40:59;6.10;99.90
5200;DHT22;2619;47.868;11.892;2022-12-31T00:43:24;6.20;99.90
5200;DHT22;2619;47.868;11.892;2022-12-31T00:45:50;6.50;99.90
5200;DHT22;2619;47.868;11.892;2022-12-31T00:48:16;6.60;99.90
5200;DHT22;2619;47.868;11.892;2022-12-31T00:50:41;6.60;99.90
5200;DHT22;2619;47.868;11.892;2022-12-31T00:53:07;6.60;99.90
5200;DHT22;2619;47.868;11.892;2022-12-31T00:55:32;6.60;99.90
5200;DHT22;2619;47.868;11.892;2022-12-31T00:57:58;6.60;99.90
5200;DHT22;2619;47.868;11.892;2022-12-31T01:00:23;6.50;99.90
5200;DHT22;2619;47.868;11.892;2022-12-31T01:02:49;6.60;99.90
5200;DHT22;2619;47.868;11.892;2022-12-31T01:05:15;6.70;99.90
5200;DHT22;2619;47.868;11.892;2022-12-31T01:07:40;6.70;99.90
5200;DHT22;2619;47.868;11.892;2022-12-31T01:10:06;6.80;99.90
5200;DHT22;2619;47.868;11.892;2022-12-31T01:12:32;7.20;99.90
5200;DHT22;2619;47.868;11.892;2022-12-31T01:14:57;7.70;99.90
5200;DHT22;2619;47.868;11.892;2022-12-31T01:17:23;8.10;99.90
5200;DHT22;2619;47.868;11.892;2022-12-31T01:19:48;8.30;99.90
5200;DHT22;2619;47.868;11.892;2022-12-31T01:22:14;8.60;99.90
5200;DHT22;2619;47.868;11.892;2022-12-31T01:24:40;8.80;99.90
5200;DHT22;2619;47.868;11.892;2022-12-31T01:27:05;9.00;99.90
5200;DHT22;2619;47.868;11.892;2022-12-31T01:29:31;9.10;99.90
5200;DHT22;2619;47.868;11.892;2022-12-31T01:31:57;9.40;99.90
5200;DHT22;2619;47.868;11.892;2022-12-31T01:34:22;9.80;99.90
5200;DHT22;2619;47.868;11.892;2022-12-31T01:36:48;10.10;99.90
5200;DHT22;2619;47.868;11.892;2022-12-31T01:39:14;10.20;99.90
5200;DHT22;2619;47.868;11.892;2022-12-31T01:41:42;10.40;99.90
5200;DHT22;2619;47.868;11.892;2022-12-31T01:46:40;10.70;99.90
5200;DHT22;2619;47.868;11.892;2022-12-31T01:49:20;10.90;99.90
5200;DHT22;2619;47.868;11.892;2022-12-31T01:52:00;11.00;99.90
5200;DHT22;2619;47.868;11.892;2022-12-31T01:54:29;11.10;99.90
5200;DHT22;2619;47.868;11.892;2022-12-31T01:56:56;11.20;99.90
5200;DHT22;2619;47.868;11.892;2022-12-31T01:59:23;11.40;99.90
5200;DHT22;2619;47.868;11.892;2022-12-31T02:01:49;11.60;99.90
5200;DHT22;2619;47.868;11.892;2022-12-31T02:04:20;11.60;99.90
5200;DHT22;2619;47.868;11.892;2022-12-31T02:06:51;11.70;99.90
5200;DHT22;2619;47.868;11.892;2022-12-31T02:09:18;11.80;99.90
5200;DHT22;2619;47.868;11.892;2022-12-31T02:11:43;11.80;99.90
5200;DHT22;2619;47.868;11.892;2022-12-31T02:14:33;11.80;99.90
5200;DHT22;2619;47.868;11.892;2022-12-31T02:17:17;11.80;99.90
5200;DHT22;2619;47.868;11.892;2022-12-31T02:31:15;11.90;99.90
5200;DHT22;2619;47.868;11.892;2022-12-31T02:34:31;11.90;99.90
5200;DHT22;2619;47.868;11.892;2022-12-31T02:36:50;11.80;99.90
5200;DHT22;2619;47.868;11.892;2022-12-31T02:39:17;11.80;99.90
5200;DHT22;2619;47.868;11.892;2022-12-31T02:41:50;11.70;99.90
5200;DHT22;2619;47.868;11.892;2022-12-31T02:44:24;11.60;99.90
5200;DHT22;2619;47.868;11.892;2022-12-31T02:58:31;11.90;99.90
5200;DHT22;2619;47.868;11.892;2022-12-31T03:01:25;11.90;99.90
5200;DHT22;2619;47.868;11.892;2022-12-31T03:04:11;11.90;99.90
5200;DHT22;2619;47.868;11.892;2022-12-31T03:07:10;11.60;99.90
5200;DHT22;2619;47.868;11.892;2022-12-31T03:09:37;11.50;99.90
5200;DHT22;2619;47.868;11.892;2022-12-31T03:12:05;11.40;99.90
5200;DHT22;2619;47.868;11.892;2022-12-31T03:14:49;11.30;99.90
5200;DHT22;2619;47.868;11.892;2022-12-31T03:17:16;11.20;99.90
5200;DHT22;2619;47.868;11.892;2022-12-31T03:19:41;11.20;99.90
5200;DHT22;2619;47.868;11.892;2022-12-31T03:22:26;11.20;99.90
5200;DHT22;2619;47.868;11.892;2022-12-31T03:27:56;11.10;99.90
5200;DHT22;2619;47.868;11.892;2022-12-31T03:30:23;11.10;99.90
5200;DHT22;2619;47.868;11.892;2022-12-31T03:32:49;11.10;99.90
5200;DHT22;2619;47.868;11.892;2022-12-31T03:35:16;11.10;99.90
5200;DHT22;2619;47.868;11.892;2022-12-31T03:37:43;11.30;99.90
5200;DHT22;2619;47.868;11.892;2022-12-31T03:40:11;11.30;99.90
5200;DHT22;2619;47.868;11.892;2022-12-31T03:42:37;11.40;99.90
5200;DHT22;2619;47.868;11.892;2022-12-31T03:45:03;11.50;99.90
5200;DHT22;2619;47.868;11.892;2022-12-31T03:47:29;11.50;99.90
5200;DHT22;2619;47.868;11.892;2022-12-31T03:49:55;11.40;99.90
5200;DHT22;2619;47.868;11.892;2022-12-31T03:52:20;11.50;99.90
5200;DHT22;2619;47.868;11.892;2022-12-31T03:54:46;11.80;99.90
5200;DHT22;2619;47.868;11.892;2022-12-31T03:57:12;11.80;99.90
5200;DHT22;2619;47.868;11.892;2022-12-31T03:59:38;11.80;99.90
5200;DHT22;2619;47.868;11.892;2022-12-31T04:02:04;11.80;99.90
5200;DHT22;2619;47.868;11.892;2022-12-31T04:04:29;12.00;99.90
5200;DHT22;2619;47.868;11.892;2022-12-31T04:06:55;12.00;99.90
5200;DHT22;2619;47.868;11.892;2022-12-31T04:09:20;12.00;99.90
5200;DHT22;2619;47.868;11.892;2022-12-31T04:11:46;12.00;99.90
5200;DHT22;2619;47.868;11.892;2022-12-31T04:14:12;12.00;99.90
5200;DHT22;2619;47.868;11.892;2022-12-31T04:16:37;12.00;99.90
5200;DHT22;2619;47.868;11.892;2022-12-31T04:19:03;12.10;99.90
5200;DHT22;2619;47.868;11.892;2022-12-31T04:21:29;12.00;99.90
5200;DHT22;2619;47.868;11.892;2022-12-31T04:23:54;11.90;99.90
5200;DHT22;2619;47.868;11.892;2022-12-31T04:26:20;11.80;99.90
5200;DHT22;2619;47.868;11.892;2022-12-31T04:28:45;11.60;99.90
5200;DHT22;2619;47.868;11.892;2022-12-31T04:31:11;11.50;99.90
5200;DHT22;2619;47.868;11.892;2022-12-31T04:33:36;11.40;99.90
5200;DHT22;2619;47.868;11.892;2022-12-31T04:36:03;11.50;99.90
5200;DHT22;2619;47.868;11.892;2022-12-31T04:38:29;11.40;99.90
5200;DHT22;2619;47.868;11.892;2022-12-31T04:40:55;11.40;99.90
5200;DHT22;2619;47.868;11.892;2022-12-31T04:43:39;11.50;99.90
5200;DHT22;2619;47.868;11.892;2022-12-31T04:46:05;11.50;99.90
5200;DHT22;2619;47.868;11.892;2022-12-31T04:48:32;11.50;99.90
5200;DHT22;2619;47.868;11.892;2022-12-31T04:50:58;11.50;99.90
5200;DHT22;2619;47.868;11.892;2022-12-31T04:53:24;11.40;99.90
5200;DHT22;2619;47.868;11.892;2022-12-31T04:55:50;11.30;99.90
5200;DHT22;2619;47.868;11.892;2022-12-31T04:58:16;11.20;99.90
5200;DHT22;2619;47.868;11.892;2022-12-31T05:00:42;11.20;99.90
5200;DHT22;2619;47.868;11.892;2022-12-31T05:03:09;11.60;99.90
5200;DHT22;2619;47.868;11.892;2022-12-31T05:05:37;11.70;99.90
5200;DHT22;2619;47.868;11.892;2022-12-31T05:08:03;12.00;99.90
5200;DHT22;2619;47.868;11.892;2022-12-31T05:10:29;12.20;99.90
5200;DHT22;2619;47.868;11.892;2022-12-31T05:12:55;12.50;99.90
5200;DHT22;2619;47.868;11.892;2022-12-31T05:15:20;12.50;99.90
5200;DHT22;2619;47.868;11.892;2022-12-31T05:17:46;12.50;99.90
5200;DHT22;2619;47.868;11.892;2022-12-31T05:20:11;12.40;99.90
5200;DHT22;2619;47.868;11.892;2022-12-31T05:22:37;12.40;99.90
5200;DHT22;2619;47.868;11.892;2022-12-31T05:25:03;12.40;99.90
5200;DHT22;2619;47.868;11.892;2022-12-31T05:27:29;12.20;99.90
5200;DHT22;2619;47.868;11.892;2022-12-31T05:29:55;11.90;99.90
5200;DHT22;2619;47.868;11.892;2022-12-31T05:32:21;11.70;99.90
5200;DHT22;2619;47.868;11.892;2022-12-31T05:34:46;11.40;99.90
5200;DHT22;2619;47.868;11.892;2022-12-31T05:37:12;11.10;99.90
5200;DHT22;2619;47.868;11.892;2022-12-31T05:39:37;11.00;99.90
5200;DHT22;2619;47.868;11.892;2022-12-31T05:42:03;10.90;99.90
5200;DHT22;2619;47.868;11.892;2022-12-31T05:44:29;10.90;99.90
5200;DHT22;2619;47.868;11.892;2022-12-31T05:46:54;10.90;99.90
5200;DHT22;2619;47.868;11.892;2022-12-31T05:49:20;10.90;99.90
5200;DHT22;2619;47.868;11.892;2022-12-31T05:51:45;11.00;99.90
5200;DHT22;2619;47.868;11.892;2022-12-31T05:54:11;11.10;99.90
5200;DHT22;2619;47.868;11.892;2022-12-31T05:56:37;11.10;99.90
5200;DHT22;2619;47.868;11.892;2022-12-31T05:59:02;11.20;99.90
5200;DHT22;2619;47.868;11.892;2022-12-31T06:01:28;11.20;99.90
5200;DHT22;2619;47.868;11.892;2022-12-31T06:03:54;11.00;99.90
5200;DHT22;2619;47.868;11.892;2022-12-31T06:06:19;10.80;99.90
5200;DHT22;2619;47.868;11.892;2022-12-31T06:08:49;10.60;99.90
5200;DHT22;2619;47.868;11.892;2022-12-31T06:11:14;10.40;99.90
5200;DHT22;2619;47.868;11.892;2022-12-31T06:13:40;10.10;99.90
5200;DHT22;2619;47.868;11.892;2022-12-31T06:16:07;10.00;99.90
5200;DHT22;2619;47.868;11.892;2022-12-31T06:18:33;10.00;99.90
5200;DHT22;2619;47.868;11.892;2022-12-31T06:20:59;10.00;99.90
5200;DHT22;2619;47.868;11.892;2022-12-31T06:23:25;10.10;99.90
5200;DHT22;2619;47.868;11.892;2022-12-31T06:25:50;10.10;99.90
5200;DHT22;2619;47.868;11.892;2022-12-31T06:28:16;10.00;99.90
5200;DHT22;2619;47.868;11.892;2022-12-31T06:30:41;9.70;99.90
5200;DHT22;2619;47.868;11.892;2022-12-31T06:33:07;9.40;99.90
5200;DHT22;2619;47.868;11.892;2022-12-31T06:35:33;9.20;99.90
5200;DHT22;2619;47.868;11.892;2022-12-31T06:37:58;8.90;99.90
5200;DHT22;2619;47.868;11.892;2022-12-31T06:40:24;8.80;99.90
5200;DHT22;2619;47.868;11.892;2022-12-31T06:42:49;8.60;99.90
5200;DHT22;2619;47.868;11.892;2022-12-31T06:45:15;8.50;99.90
5200;DHT22;2619;47.868;11.892;2022-12-31T06:47:40;8.40;99.90
5200;DHT22;2619;47.868;11.892;2022-12-31T06:50:06;8.30;99.90
5200;DHT22;2619;47.868;11.892;2022-12-31T06:52:32;8.10;99.90
5200;DHT22;2619;47.868;11.892;2022-12-31T06:54:58;7.90;99.90
5200;DHT22;2619;47.868;11.892;2022-12-31T06:57:25;7.90;99.90
5200;DHT22;2619;47.868;11.892;2022-12-31T06:59:51;8.00;99.90
5200;DHT22;2619;47.868;11.892;2022-12-31T07:15:05;8.80;99.90
5200;DHT22;2619;47.868;11.892;2022-12-31T07:22:28;8.90;99.90
5200;DHT22;2619;47.868;11.892;2022-12-31T07:24:54;8.90;99.90
5200;DHT22;2619;47.868;11.892;2022-12-31T07:30:36;9.00;99.90
5200;DHT22;2619;47.868;11.892;2022-12-31T07:43:35;9.20;99.90
5200;DHT22;2619;47.868;11.892;2022-12-31T07:46:12;9.20;99.90
5200;DHT22;2619;47.868;11.892;2022-12-31T07:48:41;9.40;99.90
5200;DHT22;2619;47.868;11.892;2022-12-31T07:51:10;9.30;99.90
5200;DHT22;2619;47.868;11.892;2022-12-31T07:53:36;9.10;99.90
5200;DHT22;2619;47.868;11.892;2022-12-31T07:56:05;8.90;99.90
5200;DHT22;2619;47.868;11.892;2022-12-31T07:58:51;8.80;99.90
5200;DHT22;2619;47.868;11.892;2022-12-31T08:09:21;8.80;99.90
5200;DHT22;2619;47.868;11.892;2022-12-31T08:11:58;8.70;99.90
5200;DHT22;2619;47.868;11.892;2022-12-31T08:14:24;8.70;99.90
5200;DHT22;2619;47.868;11.892;2022-12-31T08:16:50;8.80;99.90
5200;DHT22;2619;47.868;11.892;2022-12-31T08:19:23;8.90;99.90
5200;DHT22;2619;47.868;11.892;2022-12-31T08:24:40;8.80;99.90
5200;DHT22;2619;47.868;11.892;2022-12-31T08:30:08;8.80;99.90
5200;DHT22;2619;47.868;11.892;2022-12-31T08:33:05;8.90;99.90
5200;DHT22;2619;47.868;11.892;2022-12-31T08:41:29;9.60;99.90
5200;DHT22;2619;47.868;11.892;2022-12-31T08:44:07;9.70;99.90
5200;DHT22;2619;47.868;11.892;2022-12-31T08:49:32;10.10;99.90
5200;DHT22;2619;47.868;11.892;2022-12-31T08:51:59;10.30;99.90
5200;DHT22;2619;47.868;11.892;2022-12-31T08:54:26;10.40;99.90
5200;DHT22;2619;47.868;11.892;2022-12-31T09:05:16;11.00;99.90
5200;DHT22;2619;47.868;11.892;2022-12-31T09:10:54;11.00;99.90
5200;DHT22;2619;47.868;11.892;2022-12-31T09:17:01;10.90;99.90
5200;DHT22;2619;47.868;11.892;2022-12-31T09:19:01;10.80;99.90
5200;DHT22;2619;47.868;11.892;2022-12-31T09:21:27;10.70;99.90
5200;DHT22;2619;47.868;11.892;2022-12-31T09:23:53;10.80;99.90
5200;DHT22;2619;47.868;11.892;2022-12-31T09:26:34;11.00;99.90
5200;DHT22;2619;47.868;11.892;2022-12-31T09:31:54;11.60;99.90
5200;DHT22;2619;47.868;11.892;2022-12-31T09:34:41;11.90;99.90
5200;DHT22;2619;47.868;11.892;2022-12-31T09:37:28;12.10;99.90
5200;DHT22;2619;47.868;11.892;2022-12-31T09:57:33;12.10;99.90
5200;DHT22;2619;47.868;11.892;2022-12-31T10:08:11;11.80;99.90
5200;DHT22;2619;47.868;11.892;2022-12-31T10:10:45;11.80;99.90
5200;DHT22;2619;47.868;11.892;2022-12-31T10:21:30;12.10;99.90
5200;DHT22;2619;47.868;11.892;2022-12-31T10:26:58;12.20;99.90
5200;DHT22;2619;47.868;11.892;2022-12-31T10:30:04;12.40;99.90
5200;DHT22;2619;47.868;11.892;2022-12-31T10:33:16;12.60;99.90
5200;DHT22;2619;47.868;11.892;2022-12-31T10:39:10;12.70;99.90
5200;DHT22;2619;47.868;11.892;2022-12-31T10:53:16;13.20;99.90
5200;DHT22;2619;47.868;11.892;2022-12-31T10:56:20;13.20;99.90
5200;DHT22;2619;47.868;11.892;2022-12-31T10:59:13;13.40;99.90
5200;DHT22;2619;47.868;11.892;2022-12-31T11:20:26;15.80;99.90
5200;DHT22;2619;47.868;11.892;2022-12-31T11:28:28;16.50;99.90
5200;DHT22;2619;47.868;11.892;2022-12-31T11:34:33;17.30;99.90
5200;DHT22;2619;47.868;11.892;2022-12-31T11:36:58;17.60;99.90
5200;DHT22;2619;47.868;11.892;2022-12-31T11:39:49;17.70;99.90
5200;DHT22;2619;47.868;11.892;2022-12-31T11:45:14;17.80;99.90
5200;DHT22;2619;47.868;11.892;2022-12-31T11:48:03;17.80;99.90
5200;DHT22;2619;47.868;11.892;2022-12-31T11:55:49;17.20;99.90
5200;DHT22;2619;47.868;11.892;2022-12-31T11:58:19;17.00;99.90
5200;DHT22;2619;47.868;11.892;2022-12-31T12:03:36;16.60;99.90
5200;DHT22;2619;47.868;11.892;2022-12-31T12:06:12;16.50;99.90
5200;DHT22;2619;47.868;11.892;2022-12-31T12:08:38;16.30;99.90
5200;DHT22;2619;47.868;11.892;2022-12-31T12:11:09;16.10;99.90
5200;DHT22;2619;47.868;11.892;2022-12-31T12:13:37;15.90;99.90
5200;DHT22;2619;47.868;11.892;2022-12-31T12:16:06;15.70;99.90
5200;DHT22;2619;47.868;11.892;2022-12-31T12:21:20;15.30;99.90
5200;DHT22;2619;47.868;11.892;2022-12-31T12:24:05;15.30;99.90
5200;DHT22;2619;47.868;11.892;2022-12-31T12:26:35;15.30;99.90
5200;DHT22;2619;47.868;11.892;2022-12-31T12:29:21;15.30;99.90
5200;DHT22;2619;47.868;11.892;2022-12-31T12:32:03;15.20;99.90
5200;DHT22;2619;47.868;11.892;2022-12-31T12:34:35;15.20;99.90
5200;DHT22;2619;47.868;11.892;2022-12-31T12:37:01;15.30;99.90
5200;DHT22;2619;47.868;11.892;2022-12-31T12:39:30;15.40;99.90
5200;DHT22;2619;47.868;11.892;2022-12-31T12:42:10;15.40;99.90
5200;DHT22;2619;47.868;11.892;2022-12-31T12:44:37;15.50;99.90
5200;DHT22;2619;47.868;11.892;2022-12-31T12:47:06;15.50;99.90
5200;DHT22;2619;47.868;11.892;2022-12-31T12:49:45;15.50;99.90
5200;DHT22;2619;47.868;11.892;2022-12-31T12:55:26;15.50;99.90
5200;DHT22;2619;47.868;11.892;2022-12-31T13:00:54;15.50;99.90
5200;DHT22;2619;47.868;11.892;2022-12-31T13:19:52;15.10;99.90
5200;DHT22;2619;47.868;11.892;2022-12-31T13:22:37;15.00;99.90
5200;DHT22;2619;47.868;11.892;2022-12-31T13:27:44;14.50;99.90
5200;DHT22;2619;47.868;11.892;2022-12-31T13:30:17;14.40;99.90
5200;DHT22;2619;47.868;11.892;2022-12-31T13:32:51;14.30;99.90
5200;DHT22;2619;47.868;11.892;2022-12-31T13:35:22;14.20;99.90
5200;DHT22;2619;47.868;11.892;2022-12-31T13:37:50;14.30;99.90
5200;DHT22;2619;47.868;11.892;2022-12-31T13:40:21;14.10;99.90
5200;DHT22;2619;47.868;11.892;2022-12-31T13:43:05;13.90;99.90
5200;DHT22;2619;47.868;11.892;2022-12-31T13:45:40;13.80;99.90
5200;DHT22;2619;47.868;11.892;2022-12-31T13:48:18;13.70;99.90
5200;DHT22;2619;47.868;11.892;2022-12-31T13:50:57;13.60;99.90
5200;DHT22;2619;47.868;11.892;2022-12-31T13:56:24;13.50;99.90
5200;DHT22;2619;47.868;11.892;2022-12-31T13:59:02;13.40;99.90
5200;DHT22;2619;47.868;11.892;2022-12-31T14:01:36;13.20;99.90
5200;DHT22;2619;47.868;11.892;2022-12-31T14:04:19;13.10;99.90
5200;DHT22;2619;47.868;11.892;2022-12-31T14:07:08;13.00;99.90
5200;DHT22;2619;47.868;11.892;2022-12-31T14:09:36;13.00;99.90
5200;DHT22;2619;47.868;11.892;2022-12-31T14:17:34;12.80;99.90
5200;DHT22;2619;47.868;11.892;2022-12-31T14:25:35;12.30;99.90
5200;DHT22;2619;47.868;11.892;2022-12-31T14:28:02;12.10;99.90
5200;DHT22;2619;47.868;11.892;2022-12-31T14:30:33;12.00;99.90
5200;DHT22;2619;47.868;11.892;2022-12-31T14:33:22;12.00;99.90
5200;DHT22;2619;47.868;11.892;2022-12-31T14:36:07;11.90;99.90
5200;DHT22;2619;47.868;11.892;2022-12-31T14:46:27;11.20;99.90
5200;DHT22;2619;47.868;11.892;2022-12-31T14:51:36;11.20;99.90
5200;DHT22;2619;47.868;11.892;2022-12-31T14:54:01;11.10;99.90
5200;DHT22;2619;47.868;11.892;2022-12-31T14:56:44;10.90;99.90
5200;DHT22;2619;47.868;11.892;2022-12-31T14:59:39;10.70;99.90
5200;DHT22;2619;47.868;11.892;2022-12-31T15:02:32;10.60;99.90
5200;DHT22;2619;47.868;11.892;2022-12-31T15:05:17;10.50;99.90
5200;DHT22;2619;47.868;11.892;2022-12-31T15:10:19;10.20;99.90
5200;DHT22;2619;47.868;11.892;2022-12-31T15:13:06;10.10;99.90
5200;DHT22;2619;47.868;11.892;2022-12-31T15:23:28;9.60;99.90
5200;DHT22;2619;47.868;11.892;2022-12-31T15:25:58;9.50;99.90
5200;DHT22;2619;47.868;11.892;2022-12-31T15:31:14;9.30;99.90
5200;DHT22;2619;47.868;11.892;2022-12-31T15:36:21;8.60;99.90
5200;DHT22;2619;47.868;11.892;2022-12-31T15:38:48;8.60;99.90
5200;DHT22;2619;47.868;11.892;2022-12-31T15:43:47;8.50;99.90
5200;DHT22;2619;47.868;11.892;2022-12-31T15:46:20;8.50;99.90
5200;DHT22;2619;47.868;11.892;2022-12-31T15:48:58;8.40;99.90
5200;DHT22;2619;47.868;11.892;2022-12-31T15:51:53;8.30;99.90
5200;DHT22;2619;47.868;11.892;2022-12-31T15:54:39;8.20;99.90
5200;DHT22;2619;47.868;11.892;2022-12-31T15:57:11;8.10;99.90
5200;DHT22;2619;47.868;11.892;2022-12-31T15:59:39;7.90;99.90
5200;DHT22;2619;47.868;11.892;2022-12-31T16:02:18;7.80;99.90
5200;DHT22;2619;47.868;11.892;2022-12-31T16:04:44;7.80;99.90
5200;DHT22;2619;47.868;11.892;2022-12-31T16:07:10;7.70;99.90
5200;DHT22;2619;47.868;11.892;2022-12-31T16:09:36;7.50;99.90
5200;DHT22;2619;47.868;11.892;2022-12-31T16:12:18;7.40;99.90
5200;DHT22;2619;47.868;11.892;2022-12-31T16:14:49;7.30;99.90
5200;DHT22;2619;47.868;11.892;2022-12-31T16:17:27;7.30;99.90
5200;DHT22;2619;47.868;11.892;2022-12-31T16:19:53;7.20;99.90
5200;DHT22;2619;47.868;11.892;2022-12-31T16:22:36;7.20;99.90
5200;DHT22;2619;47.868;11.892;2022-12-31T16:25:04;7.10;99.90
5200;DHT22;2619;47.868;11.892;2022-12-31T16:27:30;7.20;99.90
5200;DHT22;2619;47.868;11.892;2022-12-31T16:32:25;7.10;99.90
5200;DHT22;2619;47.868;11.892;2022-12-31T16:34:51;7.20;99.90
5200;DHT22;2619;47.868;11.892;2022-12-31T16:37:21;7.30;99.90
5200;DHT22;2619;47.868;11.892;2022-12-31T16:42:26;7.20;99.90
5200;DHT22;2619;47.868;11.892;2022-12-31T16:44:54;7.10;99.90
5200;DHT22;2619;47.868;11.892;2022-12-31T16:47:23;7.00;99.90
5200;DHT22;2619;47.868;11.892;2022-12-31T16:50:00;7.00;99.90
5200;DHT22;2619;47.868;11.892;2022-12-31T16:52:34;7.00;99.90
5200;DHT22;2619;47.868;11.892;2022-12-31T16:55:10;7.00;99.90
5200;DHT22;2619;47.868;11.892;2022-12-31T16:57:40;7.00;99.90
5200;DHT22;2619;47.868;11.892;2022-12-31T17:00:13;7.00;99.90
5200;DHT22;2619;47.868;11.892;2022-12-31T17:02:41;7.00;99.90
5200;DHT22;2619;47.868;11.892;2022-12-31T17:05:22;6.90;99.90
5200;DHT22;2619;47.868;11.892;2022-12-31T17:07:48;6.60;99.90
5200;DHT22;2619;47.868;11.892;2022-12-31T17:12:56;6.50;99.90
5200;DHT22;2619;47.868;11.892;2022-12-31T17:15:42;6.40;99.90
5200;DHT22;2619;47.868;11.892;2022-12-31T17:18:19;6.30;99.90
5200;DHT22;2619;47.868;11.892;2022-12-31T17:20:45;6.30;99.90
5200;DHT22;2619;47.868;11.892;2022-12-31T17:23:22;6.40;99.90
5200;DHT22;2619;47.868;11.892;2022-12-31T17:26:00;6.50;99.90
5200;DHT22;2619;47.868;11.892;2022-12-31T17:28:41;6.50;99.90
5200;DHT22;2619;47.868;11.892;2022-12-31T17:31:27;6.50;99.90
5200;DHT22;2619;47.868;11.892;2022-12-31T17:34:03;6.50;99.90
5200;DHT22;2619;47.868;11.892;2022-12-31T17:36:29;6.50;99.90
5200;DHT22;2619;47.868;11.892;2022-12-31T17:38:54;6.40;99.90
5200;DHT22;2619;47.868;11.892;2022-12-31T17:41:25;6.40;99.90
5200;DHT22;2619;47.868;11.892;2022-12-31T17:43:54;6.40;99.90
5200;DHT22;2619;47.868;11.892;2022-12-31T17:46:21;6.40;99.90
5200;DHT22;2619;47.868;11.892;2022-12-31T17:48:51;6.20;99.90
5200;DHT22;2619;47.868;11.892;2022-12-31T17:51:19;6.20;99.90
5200;DHT22;2619;47.868;11.892;2022-12-31T17:53:45;6.40;99.90
5200;DHT22;2619;47.868;11.892;2022-12-31T17:56:12;6.40;99.90
5200;DHT22;2619;47.868;11.892;2022-12-31T17:58:51;6.20;99.90
5200;DHT22;2619;47.868;11.892;2022-12-31T18:01:20;6.20;99.90
5200;DHT22;2619;47.868;11.892;2022-12-31T18:03:46;6.20;99.90
5200;DHT22;2619;47.868;11.892;2022-12-31T18:06:13;6.10;99.90
5200;DHT22;2619;47.868;11.892;2022-12-31T18:08:38;6.10;99.90
5200;DHT22;2619;47.868;11.892;2022-12-31T18:11:05;6.10;99.90
5200;DHT22;2619;47.868;11.892;2022-12-31T18:13:31;6.10;99.90
5200;DHT22;2619;47.868;11.892;2022-12-31T18:15:56;6.20;99.90
5200;DHT22;2619;47.868;11.892;2022-12-31T18:18:27;6.30;99.90
5200;DHT22;2619;47.868;11.892;2022-12-31T18:20:58;6.20;99.90
5200;DHT22;2619;47.868;11.892;2022-12-31T18:23:39;6.10;99.90
5200;DHT22;2619;47.868;11.892;2022-12-31T18:26:07;6.00;99.90
5200;DHT22;2619;47.868;11.892;2022-12-31T18:28:33;5.80;99.90
5200;DHT22;2619;47.868;11.892;2022-12-31T18:30:59;5.80;99.90
5200;DHT22;2619;47.868;11.892;2022-12-31T18:33:24;5.70;99.90
5200;DHT22;2619;47.868;11.892;2022-12-31T18:35:52;5.70;99.90
5200;DHT22;2619;47.868;11.892;2022-12-31T18:38:19;5.60;99.90
5200;DHT22;2619;47.868;11.892;2022-12-31T18:40:54;5.60;99.90
5200;DHT22;2619;47.868;11.892;2022-12-31T18:43:22;5.50;99.90
5200;DHT22;2619;47.868;11.892;2022-12-31T18:45:48;5.40;99.90
5200;DHT22;2619;47.868;11.892;2022-12-31T18:48:15;5.50;99.90
5200;DHT22;2619;47.868;11.892;2022-12-31T18:50:41;5.50;99.90
5200;DHT22;2619;47.868;11.892;2022-12-31T18:53:15;5.50;99.90
5200;DHT22;2619;47.868;11.892;2022-12-31T18:55:45;5.50;99.90
5200;DHT22;2619;47.868;11.892;2022-12-31T18:58:12;5.50;99.90
5200;DHT22;2619;47.868;11.892;2022-12-31T19:00:37;5.60;99.90
5200;DHT22;2619;47.868;11.892;2022-12-31T19:03:03;5.50;99.90
5200;DHT22;2619;47.868;11.892;2022-12-31T19:05:31;5.40;99.90
5200;DHT22;2619;47.868;11.892;2022-12-31T19:07:57;5.40;99.90
5200;DHT22;2619;47.868;11.892;2022-12-31T19:10:24;5.50;99.90
5200;DHT22;2619;47.868;11.892;2022-12-31T19:12:51;5.40;99.90
5200;DHT22;2619;47.868;11.892;2022-12-31T19:17:55;5.50;99.90
5200;DHT22;2619;47.868;11.892;2022-12-31T19:20:21;5.50;99.90
5200;DHT22;2619;47.868;11.892;2022-12-31T19:22:47;5.40;99.90
5200;DHT22;2619;47.868;11.892;2022-12-31T19:27:45;5.50;99.90
5200;DHT22;2619;47.868;11.892;2022-12-31T19:30:29;5.60;99.90
5200;DHT22;2619;47.868;11.892;2022-12-31T19:32:54;5.70;99.90
5200;DHT22;2619;47.868;11.892;2022-12-31T19:35:21;5.60;99.90
5200;DHT22;2619;47.868;11.892;2022-12-31T19:37:49;5.50;99.90
5200;DHT22;2619;47.868;11.892;2022-12-31T19:40:16;5.50;99.90
5200;DHT22;2619;47.868;11.892;2022-12-31T19:42:42;5.40;99.90
5200;DHT22;2619;47.868;11.892;2022-12-31T19:45:13;5.30;99.90
5200;DHT22;2619;47.868;11.892;2022-12-31T19:47:41;5.30;99.90
5200;DHT22;2619;47.868;11.892;2022-12-31T19:50:11;5.30;99.90
5200;DHT22;2619;47.868;11.892;2022-12-31T19:52:37;5.20;99.90
5200;DHT22;2619;47.868;11.892;2022-12-31T19:55:03;5.20;99.90
5200;DHT22;2619;47.868;11.892;2022-12-31T19:57:28;5.30;99.90
5200;DHT22;2619;47.868;11.892;2022-12-31T19:59:54;5.30;99.90
5200;DHT22;2619;47.868;11.892;2022-12-31T20:02:19;5.40;99.90
5200;DHT22;2619;47.868;11.892;2022-12-31T20:04:45;5.40;99.90
5200;DHT22;2619;47.868;11.892;2022-12-31T20:07:10;5.20;99.90
5200;DHT22;2619;47.868;11.892;2022-12-31T20:09:36;5.10;99.90
5200;DHT22;2619;47.868;11.892;2022-12-31T20:12:02;5.20;99.90
5200;DHT22;2619;47.868;11.892;2022-12-31T20:14:27;5.20;99.90
5200;DHT22;2619;47.868;11.892;2022-12-31T20:16:53;5.20;99.90
5200;DHT22;2619;47.868;11.892;2022-12-31T20:19:20;5.10;99.90
5200;DHT22;2619;47.868;11.892;2022-12-31T20:21:45;5.10;99.90
5200;DHT22;2619;47.868;11.892;2022-12-31T20:24:11;5.20;99.90
5200;DHT22;2619;47.868;11.892;2022-12-31T20:26:37;5.10;99.90
5200;DHT22;2619;47.868;11.892;2022-12-31T20:29:02;5.10;99.90
5200;DHT22;2619;47.868;11.892;2022-12-31T20:31:28;5.10;99.90
5200;DHT22;2619;47.868;11.892;2022-12-31T20:33:54;5.30;99.90
5200;DHT22;2619;47.868;11.892;2022-12-31T20:36:19;5.30;99.90
5200;DHT22;2619;47.868;11.892;2022-12-31T20:38:46;5.30;99.90
5200;DHT22;2619;47.868;11.892;2022-12-31T20:41:15;5.40;99.90
5200;DHT22;2619;47.868;11.892;2022-12-31T20:43:42;5.50;99.90
5200;DHT22;2619;47.868;11.892;2022-12-31T20:46:13;5.40;99.90
5200;DHT22;2619;47.868;11.892;2022-12-31T20:48:39;5.50;99.90
5200;DHT22;2619;47.868;11.892;2022-12-31T20:51:05;5.50;99.90
5200;DHT22;2619;47.868;11.892;2022-12-31T20:53:31;5.40;99.90
5200;DHT22;2619;47.868;11.892;2022-12-31T20:55:56;5.30;99.90